TimeCST,TemperatureF,Dew PointF,Humidity,Sea Level PressureIn,VisibilityMPH,Wind Direction,Wind SpeedMPH,Gust SpeedMPH,PrecipitationIn,Events,Conditions,WindDirDegrees,DateUTC
12:56 AM,33.1,32.0,96,29.68,4.0,SE,11.5,-,0.00,Rain,Light Rain,130,2013-12-03 06:56:00
1:56 AM,34.0,32.0,92,29.66,9.0,SE,13.8,21.9,0.01,,Overcast,130,2013-12-03 07:56:00
2:56 AM,34.0,32.0,92,29.69,10.0,SE,8.1,-,N/A,,Overcast,130,2013-12-03 08:56:00
3:56 AM,34.0,32.0,92,29.68,10.0,ESE,8.1,-,N/A,,Overcast,120,2013-12-03 09:56:00
4:56 AM,34.0,32.0,92,29.69,9.0,ESE,4.6,-,N/A,,Overcast,120,2013-12-03 10:56:00
5:56 AM,34.0,32.0,92,29.70,6.0,ESE,3.5,-,N/A,,Overcast,110,2013-12-03 11:56:00
6:56 AM,34.0,33.1,96,29.70,5.0,ESE,9.2,-,N/A,,Overcast,110,2013-12-03 12:56:00
7:30 AM,33.8,33.8,100,29.67,5.0,East,9.2,-,N/A,,Overcast,100,2013-12-03 13:30:00
7:56 AM,34.0,33.1,96,29.71,4.0,East,8.1,-,N/A,,Overcast,100,2013-12-03 13:56:00
8:56 AM,34.0,33.1,96,29.72,5.0,East,10.4,-,N/A,,Overcast,90,2013-12-03 14:56:00
9:56 AM,34.0,33.1,96,29.74,4.0,East,10.4,-,N/A,,Overcast,100,2013-12-03 15:56:00
10:29 AM,33.8,33.8,100,29.72,4.0,ESE,10.4,-,N/A,,Overcast,110,2013-12-03 16:29:00
10:56 AM,34.0,33.1,96,29.75,4.0,ESE,10.4,-,N/A,,Overcast,110,2013-12-03 16:56:00
11:56 AM,34.0,32.0,92,29.74,8.0,East,11.5,-,N/A,,Overcast,100,2013-12-03 17:56:00
12:56 PM,34.0,32.0,92,29.74,6.0,East,11.5,-,0.00,Snow,Light Snow,90,2013-12-03 18:56:00
1:27 PM,33.8,32.0,93,29.71,2.5,East,9.2,-,0.00,Snow,Light Snow,90,2013-12-03 19:27:00
1:42 PM,33.8,32.0,93,29.71,1.0,East,8.1,-,0.01,Snow,Light Snow,80,2013-12-03 19:42:00
1:52 PM,33.8,32.0,93,29.71,0.5,East,10.4,-,0.02,Fog-Snow,Snow,80,2013-12-03 19:52:00
1:56 PM,33.1,32.0,96,29.74,0.5,East,8.1,-,0.02,Fog-Snow,Snow,90,2013-12-03 19:56:00
2:56 PM,33.1,32.0,96,29.74,0.5,ENE,10.4,-,0.09,Fog-Snow,Snow,60,2013-12-03 20:56:00
3:38 PM,33.8,30.2,87,29.71,1.0,ENE,12.7,-,0.02,Snow,Light Snow,70,2013-12-03 21:38:00
3:52 PM,33.8,30.2,87,29.70,2.0,ENE,13.8,21.9,0.03,Snow,Light Snow,70,2013-12-03 21:52:00
3:56 PM,33.1,30.9,92,29.73,3.0,ENE,13.8,21.9,0.03,Snow,Light Snow,60,2013-12-03 21:56:00
4:56 PM,32.0,30.0,92,29.75,10.0,ENE,10.4,-,0.00,,Overcast,70,2013-12-03 22:56:00
5:56 PM,32.0,30.0,92,29.78,9.0,East,10.4,-,0.00,,Overcast,80,2013-12-03 23:56:00
6:56 PM,32.0,28.9,88,29.80,10.0,ENE,9.2,-,0.00,,Overcast,60,2013-12-04 00:56:00
7:56 PM,30.9,28.9,92,29.81,9.0,ENE,11.5,-,0.00,,Overcast,70,2013-12-04 01:56:00
8:56 PM,30.0,28.9,96,29.80,9.0,ENE,11.5,-,N/A,,Overcast,70,2013-12-04 02:56:00
9:56 PM,30.0,28.0,92,29.80,10.0,ENE,9.2,18.4,N/A,,Overcast,60,2013-12-04 03:56:00
10:56 PM,30.0,28.0,92,29.79,10.0,ENE,10.4,-,N/A,,Overcast,70,2013-12-04 04:56:00
11:21 PM,30.2,28.4,93,29.79,10.0,ENE,6.9,-,N/A,,Overcast,70,2013-12-04 05:21:00
11:54 PM,30.2,28.4,93,29.79,10.0,ENE,10.4,-,N/A,,Overcast,60,2013-12-04 05:54:00
11:56 PM,30.0,28.0,92,29.82,10.0,ENE,9.2,-,N/A,,Overcast,60,2013-12-04 05:56:00